Time;durP1;ratioP1;P1;durP2;ratioP2;P2;SDS_P1;SDS_P2;PMS_P1;PMS_P2;Temp;Humidity;BMP_temperature;BMP_pressure;BME280_temperature;BME280_humidity;BME280_pressure;Samples;Min_cycle;Max_cycle;Signal;HPM_P1;HPM_P2
2023/10/22 00:00:09;;;;;;;4.00;1.60;;;10.80;99.90;;;;;;5064939;28;20025;-84
2023/10/22 00:02:35;;;;;;;3.20;1.42;;;10.80;99.90;;;;;;5062449;28;20048;-85
2023/10/22 00:05:02;;;;;;;7.68;1.70;;;10.70;99.90;;;;;;5063851;28;20154;-85
2023/10/22 00:07:28;;;;;;;4.40;1.25;;;10.70;99.90;;;;;;5059641;28;20029;-84
2023/10/22 00:09:54;;;;;;;2.55;1.50;;;10.70;99.90;;;;;;5066393;28;20081;-85
2023/10/22 00:12:23;;;;;;;11.98;1.48;;;10.70;99.90;;;;;;5067768;28;20389;-86
2023/10/22 00:14:49;;;;;;;4.35;1.50;;;10.70;99.90;;;;;;5060202;28;20028;-85
2023/10/22 00:17:15;;;;;;;6.80;1.83;;;10.70;99.90;;;;;;5063558;28;20178;-84
2023/10/22 00:19:44;;;;;;;2.25;1.50;;;10.60;99.90;;;;;;5056782;28;20508;-86
2023/10/22 00:22:14;;;;;;;4.80;2.13;;;10.60;99.90;;;;;;5061988;28;20031;-84
2023/10/22 00:24:43;;;;;;;4.60;1.60;;;10.60;99.90;;;;;;5063791;28;20046;-84
2023/10/22 00:27:11;;;;;;;13.88;2.03;;;10.60;99.90;;;;;;5060889;28;20032;-84
2023/10/22 00:29:37;;;;;;;6.82;1.25;;;10.50;99.90;;;;;;5056760;28;20028;-84
2023/10/22 00:32:06;;;;;;;3.03;1.38;;;10.50;99.90;;;;;;5064993;28;20061;-84
2023/10/22 00:34:32;;;;;;;1.58;1.33;;;10.50;99.90;;;;;;5065218;28;20056;-85
2023/10/22 00:36:57;;;;;;;2.13;1.40;;;10.40;99.90;;;;;;5061600;28;20089;-84
2023/10/22 00:39:25;;;;;;;4.13;1.60;;;10.40;99.90;;;;;;5063077;28;20028;-84
2023/10/22 00:41:51;;;;;;;2.95;1.52;;;10.40;99.90;;;;;;5066925;28;20377;-85
2023/10/22 00:44:20;;;;;;;5.88;1.65;;;10.30;99.90;;;;;;5065655;28;20027;-84
2023/10/22 00:46:46;;;;;;;2.92;1.55;;;10.30;99.90;;;;;;5062874;28;20020;-84
2023/10/22 00:49:13;;;;;;;6.18;1.88;;;10.40;99.90;;;;;;5064265;28;20028;-85
2023/10/22 00:51:39;;;;;;;3.15;1.52;;;10.40;99.90;;;;;;5056661;28;20385;-84
2023/10/22 00:54:06;;;;;;;6.55;1.52;;;10.40;99.90;;;;;;5058720;28;20039;-87
2023/10/22 00:56:36;;;;;;;2.28;1.58;;;10.40;99.90;;;;;;5059036;28;20024;-84
2023/10/22 00:59:05;;;;;;;3.47;1.67;;;10.40;99.90;;;;;;5056129;28;20029;-84
2023/10/22 01:01:31;;;;;;;2.80;1.50;;;10.40;99.90;;;;;;5055650;28;20035;-84
2023/10/22 01:03:57;;;;;;;6.30;1.67;;;10.30;99.90;;;;;;5064942;28;20408;-85
2023/10/22 01:06:23;;;;;;;6.28;1.58;;;10.30;99.90;;;;;;5062091;28;20029;-83
2023/10/22 01:08:49;;;;;;;7.28;2.10;;;10.30;99.90;;;;;;5058277;28;20020;-84
2023/10/22 01:11:15;;;;;;;6.65;1.50;;;10.40;99.90;;;;;;5066096;28;20070;-84
2023/10/22 01:13:41;;;;;;;2.65;1.65;;;10.40;99.90;;;;;;5063038;28;20020;-84
2023/10/22 01:16:08;;;;;;;3.65;1.90;;;10.40;99.90;;;;;;5063736;28;20119;-85
2023/10/22 01:18:34;;;;;;;10.38;1.95;;;10.40;99.90;;;;;;5065497;28;20103;-84
2023/10/22 01:21:01;;;;;;;3.65;1.90;;;10.40;99.90;;;;;;5062992;28;20148;-87
2023/10/22 01:23:37;;;;;;;4.90;1.92;;;10.50;99.90;;;;;;5063439;28;20028;-85
2023/10/22 01:26:06;;;;;;;1.98;1.42;;;10.50;99.90;;;;;;5062289;28;20036;-85
2023/10/22 01:28:35;;;;;;;3.00;1.63;;;10.50;99.90;;;;;;5065024;28;20429;-84
2023/10/22 01:31:04;;;;;;;3.15;1.70;;;10.50;99.90;;;;;;5063112;28;20080;-84
2023/10/22 01:33:30;;;;;;;8.00;1.70;;;10.60;99.90;;;;;;5064737;28;20025;-84
2023/10/22 01:35:56;;;;;;;4.40;2.10;;;10.60;99.90;;;;;;5061336;28;20074;-84
2023/10/22 01:38:24;;;;;;;5.25;1.75;;;10.60;99.90;;;;;;5056249;28;20028;-86
2023/10/22 01:40:53;;;;;;;2.17;1.50;;;10.50;99.90;;;;;;5061237;28;20025;-87
2023/10/22 01:43:21;;;;;;;4.72;1.70;;;10.50;99.90;;;;;;5062614;28;20081;-85
2023/10/22 01:45:46;;;;;;;3.25;1.75;;;10.40;99.90;;;;;;5063657;28;20545;-84
2023/10/22 01:48:12;;;;;;;3.67;1.83;;;10.40;99.90;;;;;;5062172;28;20115;-84
2023/10/22 01:50:40;;;;;;;2.42;1.75;;;10.30;99.90;;;;;;5057579;28;20112;-84
2023/10/22 01:53:07;;;;;;;2.45;1.35;;;10.20;99.90;;;;;;5055519;28;20618;-84
2023/10/22 01:55:33;;;;;;;4.53;1.65;;;10.20;99.90;;;;;;5065208;28;20447;-85
2023/10/22 01:57:58;;;;;;;1.80;1.38;;;10.10;99.90;;;;;;5065716;28;20020;-85
2023/10/22 02:00:24;;;;;;;9.00;1.73;;;10.10;99.90;;;;;;5059495;28;20021;-84
2023/10/22 02:02:52;;;;;;;2.78;1.45;;;10.00;99.90;;;;;;5062492;28;20116;-84
2023/10/22 02:05:18;;;;;;;3.00;1.63;;;10.00;99.90;;;;;;5061060;28;20036;-85
2023/10/22 02:07:47;;;;;;;5.20;1.60;;;10.00;99.90;;;;;;5062766;28;20021;-85
2023/10/22 02:10:16;;;;;;;10.00;1.48;;;9.90;99.90;;;;;;5062659;28;20029;-87
2023/10/22 02:12:42;;;;;;;3.42;1.85;;;9.90;99.90;;;;;;5061490;28;20183;-85
2023/10/22 02:15:08;;;;;;;2.35;1.60;;;9.80;99.90;;;;;;5059117;28;20123;-84
2023/10/22 02:17:34;;;;;;;2.70;1.58;;;9.80;99.90;;;;;;5065004;28;20107;-84
2023/10/22 02:19:59;;;;;;;5.38;1.70;;;9.80;99.90;;;;;;5066752;28;20461;-84
2023/10/22 02:22:25;;;;;;;4.22;1.85;;;9.80;99.90;;;;;;5068458;28;20025;-84
2023/10/22 02:24:51;;;;;;;4.13;1.55;;;9.80;99.90;;;;;;5067133;28;20032;-84
2023/10/22 02:27:17;;;;;;;1.73;1.50;;;9.80;99.90;;;;;;5061136;28;20056;-85
2023/10/22 02:29:46;;;;;;;5.07;1.40;;;9.80;99.90;;;;;;5068832;28;20029;-83
2023/10/22 02:32:11;;;;;;;3.35;1.40;;;9.80;99.90;;;;;;5059700;28;21479;-84
2023/10/22 02:34:40;;;;;;;2.33;1.60;;;9.80;99.90;;;;;;5063594;28;20161;-84
2023/10/22 02:37:05;;;;;;;3.08;1.40;;;9.80;99.90;;;;;;5068527;28;20113;-86
2023/10/22 02:39:32;;;;;;;2.13;1.50;;;9.80;99.90;;;;;;5061840;28;20070;-85
2023/10/22 02:41:57;;;;;;;6.20;1.45;;;9.80;99.90;;;;;;5060521;28;20044;-85
2023/10/22 02:44:23;;;;;;;1.60;1.48;;;9.80;99.90;;;;;;5063263;28;20020;-84
2023/10/22 02:46:49;;;;;;;4.38;1.58;;;9.80;99.90;;;;;;5068641;28;20024;-85
2023/10/22 02:49:17;;;;;;;3.55;1.65;;;9.90;99.90;;;;;;5064330;28;20074;-84
2023/10/22 02:51:47;;;;;;;3.90;1.60;;;9.90;99.90;;;;;;5068045;28;20135;-84
2023/10/22 02:54:12;;;;;;;6.68;1.92;;;9.90;99.90;;;;;;5062211;28;20025;-85
2023/10/22 02:56:39;;;;;;;4.22;1.92;;;9.90;99.90;;;;;;5066220;28;20058;-84
2023/10/22 02:59:05;;;;;;;5.20;1.73;;;9.90;99.90;;;;;;5068680;28;20036;-84
2023/10/22 03:01:33;;;;;;;5.63;1.55;;;10.00;99.90;;;;;;5063170;28;20484;-84
2023/10/22 03:03:59;;;;;;;4.10;1.55;;;10.10;99.90;;;;;;5066749;28;20029;-84
2023/10/22 03:06:27;;;;;;;8.77;2.10;;;10.20;99.90;;;;;;5063334;28;20362;-83
2023/10/22 03:08:53;;;;;;;15.05;1.90;;;10.30;99.90;;;;;;5065982;28;20481;-85
2023/10/22 03:11:21;;;;;;;1.90;1.27;;;10.30;99.90;;;;;;5067882;28;20077;-83
2023/10/22 03:13:50;;;;;;;16.55;1.77;;;10.40;99.90;;;;;;5062927;28;20750;-85
2023/10/22 03:16:17;;;;;;;5.97;1.33;;;10.50;99.90;;;;;;5057705;28;20044;-87
2023/10/22 03:18:46;;;;;;;3.88;1.38;;;10.70;99.90;;;;;;5061955;28;20542;-84
2023/10/22 03:21:20;;;;;;;2.20;1.40;;;10.70;99.90;;;;;;5066399;28;20028;-85
2023/10/22 03:23:48;;;;;;;4.72;1.35;;;10.80;99.90;;;;;;5064588;28;20024;-86
2023/10/22 03:26:18;;;;;;;3.83;1.58;;;10.90;99.90;;;;;;5061150;28;20559;-84
2023/10/22 03:28:45;;;;;;;10.50;1.30;;;11.00;99.90;;;;;;5066340;28;20036;-84
2023/10/22 03:31:11;;;;;;;3.97;1.30;;;11.10;99.90;;;;;;5068220;28;20075;-81
2023/10/22 03:33:37;;;;;;;6.88;1.45;;;11.30;99.90;;;;;;5059798;28;20056;-83
2023/10/22 03:36:09;;;;;;;3.33;1.17;;;11.40;99.90;;;;;;5067421;28;20067;-81
2023/10/22 03:38:36;;;;;;;5.72;1.50;;;11.50;99.90;;;;;;5066660;28;20033;-84
2023/10/22 03:41:05;;;;;;;2.88;1.20;;;11.50;99.90;;;;;;5059613;28;20017;-84
2023/10/22 03:43:38;;;;;;;2.08;1.33;;;11.50;99.90;;;;;;5068486;28;20865;-84
2023/10/22 03:46:03;;;;;;;7.00;1.75;;;11.50;99.90;;;;;;5062315;28;20027;-84
2023/10/22 03:48:29;;;;;;;4.40;1.60;;;11.50;99.90;;;;;;5064521;28;20028;-85
2023/10/22 03:50:55;;;;;;;5.70;1.42;;;11.50;99.90;;;;;;5063997;28;20063;-83
2023/10/22 03:53:22;;;;;;;3.67;1.40;;;11.60;99.90;;;;;;5069985;28;20486;-86
2023/10/22 03:55:48;;;;;;;7.38;1.48;;;11.60;99.90;;;;;;5060902;28;20043;-88
2023/10/22 03:58:13;;;;;;;11.50;1.60;;;11.70;99.90;;;;;;5058184;28;20389;-85
2023/10/22 04:00:39;;;;;;;7.55;1.45;;;11.70;99.90;;;;;;5068406;28;20044;-83
2023/10/22 04:03:05;;;;;;;5.68;1.63;;;11.70;99.90;;;;;;5068683;28;20027;-87
2023/10/22 04:05:31;;;;;;;9.13;1.80;;;11.60;99.90;;;;;;5059711;28;20024;-82
2023/10/22 04:07:56;;;;;;;13.85;1.75;;;11.70;99.90;;;;;;5064345;28;20032;-85
2023/10/22 04:10:22;;;;;;;6.13;1.40;;;11.70;99.90;;;;;;5065366;28;20020;-85
2023/10/22 04:12:47;;;;;;;4.68;1.20;;;11.70;99.90;;;;;;5066455;28;20040;-85
2023/10/22 04:15:13;;;;;;;1.42;1.13;;;11.70;99.90;;;;;;5063283;28;20042;-86
2023/10/22 04:17:39;;;;;;;4.25;1.30;;;11.70;99.90;;;;;;5066582;28;20029;-87
2023/10/22 04:20:11;;;;;;;4.15;1.15;;;11.70;99.90;;;;;;5065621;28;20513;-85
2023/10/22 04:22:36;;;;;;;10.77;1.30;;;11.70;99.90;;;;;;5062963;28;20029;-82
2023/10/22 04:25:05;;;;;;;6.00;1.73;;;11.70;99.90;;;;;;5058390;28;20476;-83
2023/10/22 04:27:31;;;;;;;4.75;1.40;;;11.70;99.90;;;;;;5061712;28;20073;-85
2023/10/22 04:29:57;;;;;;;4.78;1.20;;;11.70;99.90;;;;;;5065850;28;20024;-85
2023/10/22 04:32:29;;;;;;;4.28;1.30;;;11.70;99.90;;;;;;5069658;28;20044;-84
2023/10/22 04:34:57;;;;;;;9.80;1.42;;;11.70;99.90;;;;;;5062332;28;20028;-87
2023/10/22 04:37:23;;;;;;;9.13;1.92;;;11.60;99.90;;;;;;5065756;28;20066;-84
2023/10/22 04:39:49;;;;;;;6.88;1.45;;;11.60;99.90;;;;;;5066012;28;20039;-84
2023/10/22 04:42:15;;;;;;;7.40;1.42;;;11.70;99.90;;;;;;5065301;28;20020;-82
2023/10/22 04:44:45;;;;;;;6.20;1.67;;;11.60;99.90;;;;;;5068289;28;20044;-85
2023/10/22 04:47:17;;;;;;;7.15;1.63;;;11.70;99.90;;;;;;5064708;28;20108;-87
2023/10/22 04:49:47;;;;;;;9.30;1.77;;;11.60;99.90;;;;;;5066929;28;20107;-84
2023/10/22 04:52:22;;;;;;;3.30;1.35;;;11.60;99.90;;;;;;5065779;28;20060;-89
2023/10/22 04:54:49;;;;;;;11.27;1.85;;;11.60;99.90;;;;;;5064277;28;20043;-83
2023/10/22 04:57:15;;;;;;;2.42;1.20;;;11.50;99.90;;;;;;5066376;28;20500;-85
2023/10/22 04:59:44;;;;;;;10.00;2.47;;;11.50;99.90;;;;;;5064202;28;20031;-86
2023/10/22 05:02:10;;;;;;;7.43;1.75;;;11.50;99.90;;;;;;5066856;28;20042;-88
2023/10/22 05:04:35;;;;;;;7.72;1.40;;;11.50;99.90;;;;;;5060867;28;20532;-84
2023/10/22 05:07:01;;;;;;;5.22;1.85;;;11.40;99.90;;;;;;5064094;28;20032;-85
2023/10/22 05:09:26;;;;;;;5.35;1.60;;;11.40;99.90;;;;;;5065251;28;20579;-84
2023/10/22 05:11:52;;;;;;;7.78;1.67;;;11.40;99.90;;;;;;5065360;28;20044;-84
2023/10/22 05:14:17;;;;;;;4.35;1.42;;;11.40;99.90;;;;;;5061036;28;20465;-85
2023/10/22 05:16:44;;;;;;;5.57;1.35;;;11.40;99.90;;;;;;5062171;28;20122;-85
2023/10/22 05:19:09;;;;;;;8.38;1.50;;;11.40;99.90;;;;;;5062914;28;20029;-86
2023/10/22 05:21:37;;;;;;;7.00;1.40;;;11.40;99.90;;;;;;5061194;28;20396;-85
2023/10/22 05:24:03;;;;;;;4.93;1.50;;;11.30;99.90;;;;;;5066422;28;20029;-84
2023/10/22 05:26:31;;;;;;;6.97;1.63;;;11.30;99.90;;;;;;5062529;28;20020;-82
2023/10/22 05:28:57;;;;;;;6.15;1.55;;;11.30;99.90;;;;;;5065927;28;20024;-86
2023/10/22 05:31:22;;;;;;;4.50;1.60;;;11.30;99.90;;;;;;5063221;28;20049;-86
2023/10/22 05:33:48;;;;;;;8.82;1.60;;;11.30;99.90;;;;;;5064850;28;20108;-85
2023/10/22 05:36:19;;;;;;;11.30;3.42;;;11.30;99.90;;;;;;5065306;28;20116;-85
2023/10/22 05:38:45;;;;;;;10.02;2.03;;;11.30;99.90;;;;;;5056700;28;20021;-84
2023/10/22 05:41:27;;;;;;;2.92;1.52;;;11.30;99.90;;;;;;5064910;28;20037;-88
2023/10/22 05:44:01;;;;;;;14.05;2.33;;;11.30;99.90;;;;;;5062753;28;20136;-88
2023/10/22 05:46:36;;;;;;;5.05;1.38;;;11.30;99.90;;;;;;5061417;28;20357;-87
2023/10/22 05:49:03;;;;;;;4.30;1.50;;;11.20;99.90;;;;;;5060306;28;20465;-88
2023/10/22 05:51:29;;;;;;;3.25;1.33;;;11.20;99.90;;;;;;5059810;28;20056;-86
2023/10/22 05:53:56;;;;;;;17.08;2.75;;;11.10;99.90;;;;;;5069352;28;20094;-89
2023/10/22 05:56:23;;;;;;;10.85;1.77;;;11.10;99.90;;;;;;5070922;28;20104;-90
2023/10/22 05:58:49;;;;;;;11.23;3.72;;;11.10;99.90;;;;;;5069640;28;20056;-90
2023/10/22 06:01:17;;;;;;;11.73;2.25;;;11.20;99.90;;;;;;5067216;28;20063;-88
2023/10/22 06:03:43;;;;;;;14.20;1.70;;;11.20;99.90;;;;;;5066453;28;20029;-88
2023/10/22 06:06:11;;;;;;;10.27;1.58;;;11.20;99.90;;;;;;5062229;28;20036;-83
2023/10/22 06:08:37;;;;;;;9.27;1.38;;;11.20;99.90;;;;;;5061274;28;20157;-88
2023/10/22 06:11:10;;;;;;;7.75;1.70;;;11.20;99.90;;;;;;5068496;28;20119;-86
2023/10/22 06:13:36;;;;;;;8.93;2.13;;;11.20;99.90;;;;;;5069009;28;20032;-88
2023/10/22 06:16:02;;;;;;;8.93;1.85;;;11.20;99.90;;;;;;5064325;28;20419;-85
2023/10/22 06:18:28;;;;;;;8.95;1.55;;;11.20;99.90;;;;;;5063791;28;20021;-83
2023/10/22 06:20:54;;;;;;;15.57;2.10;;;11.20;99.90;;;;;;5073230;28;20028;-84
2023/10/22 06:23:21;;;;;;;11.52;1.58;;;11.20;99.90;;;;;;5060913;28;20036;-85
2023/10/22 06:25:48;;;;;;;13.55;1.80;;;11.20;99.90;;;;;;5066763;28;20094;-87
2023/10/22 06:28:13;;;;;;;9.02;1.70;;;11.10;99.90;;;;;;5063796;28;20029;-86
2023/10/22 06:30:40;;;;;;;4.95;1.75;;;11.10;99.90;;;;;;5065958;28;20102;-84
2023/10/22 06:33:06;;;;;;;9.70;1.85;;;11.10;99.90;;;;;;5063874;28;20028;-84
2023/10/22 06:35:32;;;;;;;12.43;2.00;;;11.10;99.90;;;;;;5056902;28;20377;-84
2023/10/22 06:37:58;;;;;;;10.32;1.65;;;11.20;99.90;;;;;;5059756;28;20036;-83
2023/10/22 06:40:24;;;;;;;4.63;1.25;;;11.20;99.90;;;;;;5067770;28;20024;-84
2023/10/22 06:42:50;;;;;;;6.20;2.15;;;11.20;99.90;;;;;;5063205;28;20032;-88
2023/10/22 06:45:17;;;;;;;4.60;1.40;;;11.20;99.90;;;;;;5062366;28;20087;-85
2023/10/22 06:47:43;;;;;;;15.20;2.45;;;11.20;99.90;;;;;;5061422;28;20024;-86
2023/10/22 06:50:13;;;;;;;7.55;1.88;;;11.20;99.90;;;;;;5065337;28;20017;-87
2023/10/22 06:52:42;;;;;;;8.55;2.28;;;11.20;99.90;;;;;;5060696;28;20050;-81
2023/10/22 06:55:08;;;;;;;8.88;2.05;;;11.20;99.90;;;;;;5066878;28;20037;-88
2023/10/22 06:57:38;;;;;;;7.35;1.90;;;11.30;99.90;;;;;;5058842;28;20033;-87
2023/10/22 07:00:04;;;;;;;10.15;1.90;;;11.30;99.90;;;;;;5061053;28;20473;-84
2023/10/22 07:02:33;;;;;;;9.57;1.50;;;11.30;99.90;;;;;;5058644;28;20097;-85
2023/10/22 07:04:59;;;;;;;10.30;2.08;;;11.40;99.90;;;;;;5060636;28;20539;-89
2023/10/22 07:07:24;;;;;;;11.43;1.63;;;11.40;99.90;;;;;;5062986;28;20072;-85
2023/10/22 07:09:50;;;;;;;8.73;1.98;;;11.40;99.90;;;;;;5067312;28;20070;-85
2023/10/22 07:12:17;;;;;;;6.38;1.63;;;11.40;99.90;;;;;;5066763;28;20485;-85
2023/10/22 07:14:43;;;;;;;7.15;1.73;;;11.50;99.90;;;;;;5063023;28;20025;-83
2023/10/22 07:17:10;;;;;;;8.20;2.95;;;11.50;99.90;;;;;;5060057;28;20024;-89
2023/10/22 07:19:36;;;;;;;9.73;2.60;;;11.50;99.90;;;;;;5058445;28;20043;-85
2023/10/22 07:22:02;;;;;;;15.70;1.73;;;11.50;99.90;;;;;;5058301;28;20032;-85
2023/10/22 07:24:28;;;;;;;7.72;2.00;;;11.50;99.90;;;;;;5058129;28;20420;-82
2023/10/22 07:26:54;;;;;;;11.57;1.67;;;11.60;99.90;;;;;;5067823;28;20055;-82
2023/10/22 07:29:20;;;;;;;7.18;2.17;;;11.60;99.90;;;;;;5063089;28;20055;-82
2023/10/22 07:31:51;;;;;;;10.98;2.20;;;11.70;99.90;;;;;;5057828;28;20057;-86
2023/10/22 07:34:16;;;;;;;11.40;2.25;;;11.70;99.90;;;;;;5054684;28;20044;-85
2023/10/22 07:36:42;;;;;;;6.68;2.10;;;11.70;99.90;;;;;;5066819;28;20028;-84
2023/10/22 07:39:08;;;;;;;5.35;1.83;;;11.70;99.90;;;;;;5060717;28;20047;-87
2023/10/22 07:41:33;;;;;;;6.30;1.55;;;11.70;99.90;;;;;;5062748;28;20048;-87
2023/10/22 07:43:59;;;;;;;6.60;1.65;;;11.70;99.90;;;;;;5059633;28;20101;-86
2023/10/22 07:46:25;;;;;;;7.63;2.17;;;11.70;99.90;;;;;;5058524;28;20059;-84
2023/10/22 07:48:51;;;;;;;5.50;1.75;;;11.80;99.90;;;;;;5064685;28;20028;-85
2023/10/22 07:51:19;;;;;;;6.78;1.33;;;11.80;99.90;;;;;;5066683;28;20062;-86
2023/10/22 07:53:45;;;;;;;11.07;1.50;;;11.80;99.90;;;;;;5066377;28;20025;-86
2023/10/22 07:56:11;;;;;;;5.20;2.00;;;11.80;99.90;;;;;;5064735;28;21855;-86
2023/10/22 07:58:38;;;;;;;8.60;1.73;;;11.90;99.90;;;;;;5066463;28;20214;-84
2023/10/22 08:01:08;;;;;;;6.05;1.52;;;11.80;99.90;;;;;;5063158;28;20037;-85
2023/10/22 08:03:34;;;;;;;6.35;1.60;;;11.90;99.90;;;;;;5059653;28;20171;-84
2023/10/22 08:06:01;;;;;;;10.65;1.70;;;11.90;99.90;;;;;;5062759;28;20489;-85
2023/10/22 08:08:27;;;;;;;14.10;2.28;;;11.90;99.90;;;;;;5064936;28;20025;-86
2023/10/22 08:10:57;;;;;;;7.07;1.70;;;11.90;99.90;;;;;;5063507;28;20474;-86
2023/10/22 08:13:23;;;;;;;9.45;1.92;;;12.00;99.90;;;;;;5065729;28;20499;-85
2023/10/22 08:15:49;;;;;;;9.50;2.13;;;12.10;99.90;;;;;;5065548;28;20029;-85
2023/10/22 08:18:15;;;;;;;11.25;2.22;;;12.20;99.90;;;;;;5066797;28;20029;-85
2023/10/22 08:20:41;;;;;;;10.00;2.38;;;12.30;99.90;;;;;;5056918;28;20058;-84
2023/10/22 08:23:07;;;;;;;6.88;1.52;;;12.20;99.90;;;;;;5051473;28;20384;-86
2023/10/22 08:25:33;;;;;;;12.45;2.45;;;12.30;99.90;;;;;;5060695;28;20024;-84
2023/10/22 08:27:58;;;;;;;8.20;1.85;;;12.30;99.90;;;;;;5058493;28;20024;-86
2023/10/22 08:30:24;;;;;;;7.70;2.03;;;12.30;99.90;;;;;;5057395;28;20472;-85
2023/10/22 08:32:51;;;;;;;12.77;2.03;;;12.30;99.90;;;;;;5058787;28;20045;-86
2023/10/22 08:35:17;;;;;;;7.28;1.63;;;12.40;99.90;;;;;;5064593;28;20041;-86
2023/10/22 08:37:43;;;;;;;4.63;1.48;;;12.30;99.90;;;;;;5056932;28;20120;-86
2023/10/22 08:40:09;;;;;;;5.95;1.50;;;12.30;99.90;;;;;;5054795;28;20024;-87
2023/10/22 08:42:36;;;;;;;11.77;1.83;;;12.40;99.90;;;;;;5057682;28;20040;-85
2023/10/22 08:45:05;;;;;;;6.75;1.92;;;12.40;99.90;;;;;;5056660;28;20035;-83
2023/10/22 08:47:33;;;;;;;12.75;2.03;;;12.50;99.90;;;;;;5054574;28;20448;-86
2023/10/22 08:50:02;;;;;;;8.05;2.22;;;12.50;99.90;;;;;;5063395;28;20024;-86
2023/10/22 08:52:28;;;;;;;7.88;1.77;;;12.50;99.90;;;;;;5057120;28;20064;-82
2023/10/22 08:54:54;;;;;;;7.60;2.47;;;12.50;99.90;;;;;;5060265;28;20055;-86
2023/10/22 08:57:21;;;;;;;5.80;1.65;;;12.50;99.90;;;;;;5062100;28;20032;-88
2023/10/22 08:59:48;;;;;;;9.43;2.28;;;12.60;99.90;;;;;;5054564;28;20055;-86
2023/10/22 09:02:21;;;;;;;8.68;1.92;;;12.70;99.90;;;;;;5060945;28;20060;-86
2023/10/22 09:04:47;;;;;;;9.82;1.83;;;12.70;99.90;;;;;;5068520;28;20024;-85
2023/10/22 09:07:13;;;;;;;14.35;2.03;;;12.80;99.90;;;;;;5061271;28;20035;-89
2023/10/22 09:09:39;;;;;;;9.20;2.53;;;12.80;99.90;;;;;;5055116;28;20029;-83
2023/10/22 09:12:14;;;;;;;12.23;2.05;;;12.90;99.90;;;;;;5053639;28;20036;-88
2023/10/22 09:14:43;;;;;;;16.20;1.85;;;12.90;99.90;;;;;;5061761;28;20477;-84
2023/10/22 09:17:16;;;;;;;25.90;2.28;;;12.90;99.90;;;;;;5056789;28;20359;-89
2023/10/22 09:19:47;;;;;;;14.77;2.63;;;13.00;99.90;;;;;;5063087;28;20108;-85
2023/10/22 09:22:26;;;;;;;8.68;2.45;;;13.00;99.90;;;;;;5061770;28;20556;-87
2023/10/22 09:24:56;;;;;;;8.75;1.83;;;13.00;99.90;;;;;;5062486;28;20024;-88
2023/10/22 09:27:27;;;;;;;21.38;3.33;;;13.10;99.90;;;;;;5058387;28;20031;-86
2023/10/22 09:29:53;;;;;;;9.35;1.50;;;13.10;99.90;;;;;;5064394;28;20033;-84
2023/10/22 09:32:20;;;;;;;8.63;2.35;;;13.10;99.90;;;;;;5060331;28;20074;-86
2023/10/22 09:34:46;;;;;;;8.68;1.98;;;13.10;99.90;;;;;;5062149;28;20060;-85
2023/10/22 09:37:12;;;;;;;13.18;3.17;;;13.20;99.90;;;;;;5062565;28;20048;-85
2023/10/22 09:39:42;;;;;;;6.03;1.60;;;13.20;99.90;;;;;;5062460;28;20197;-85
2023/10/22 09:42:09;;;;;;;17.75;2.50;;;13.10;99.90;;;;;;5063891;28;20111;-88
2023/10/22 09:44:35;;;;;;;9.52;1.75;;;13.10;99.90;;;;;;5060317;28;20035;-86
2023/10/22 09:47:03;;;;;;;9.27;1.98;;;13.20;99.90;;;;;;5059713;28;20025;-82
2023/10/22 09:49:33;;;;;;;6.00;1.60;;;13.20;99.90;;;;;;5052667;28;20056;-87
2023/10/22 09:52:00;;;;;;;10.50;2.05;;;13.20;99.90;;;;;;5054221;28;20041;-85
2023/10/22 09:54:42;;;;;;;7.50;2.03;;;13.20;99.90;;;;;;5051487;28;20669;-85
2023/10/22 09:57:11;;;;;;;9.90;1.95;;;13.30;99.90;;;;;;5058785;28;20500;-84
2023/10/22 09:59:39;;;;;;;7.40;1.63;;;13.30;99.90;;;;;;5060719;28;20043;-87
2023/10/22 10:02:16;;;;;;;10.55;2.15;;;13.40;99.90;;;;;;5059746;28;20040;-86
2023/10/22 10:04:48;;;;;;;7.90;1.95;;;13.50;99.90;;;;;;5060667;28;20029;-85
2023/10/22 10:07:14;;;;;;;7.72;1.70;;;13.50;99.90;;;;;;5061531;28;20112;-86
2023/10/22 10:09:41;;;;;;;12.85;1.70;;;13.40;99.90;;;;;;5061269;28;20061;-84
2023/10/22 10:12:12;;;;;;;9.68;2.03;;;13.40;99.90;;;;;;5056207;28;20051;-86
2023/10/22 10:14:49;;;;;;;10.73;2.10;;;13.40;99.90;;;;;;5060482;28;20037;-86
2023/10/22 10:17:18;;;;;;;6.43;1.50;;;13.30;99.90;;;;;;5055813;28;20055;-84
2023/10/22 10:19:44;;;;;;;10.52;1.65;;;13.30;99.90;;;;;;5064354;28;20086;-87
2023/10/22 10:22:36;;;;;;;12.88;1.92;;;13.30;99.90;;;;;;5059885;28;20362;-87
2023/10/22 10:25:31;;;;;;;7.07;1.50;;;13.30;99.90;;;;;;5066913;28;20037;-86
2023/10/22 10:28:01;;;;;;;8.15;1.42;;;13.30;99.90;;;;;;5065522;28;20025;-86
2023/10/22 10:30:26;;;;;;;11.75;1.88;;;13.40;99.90;;;;;;5063097;28;20536;-87
2023/10/22 10:32:52;;;;;;;5.45;1.48;;;13.30;99.90;;;;;;5065126;28;20123;-88
2023/10/22 10:35:19;;;;;;;7.93;1.83;;;13.40;99.90;;;;;;5070265;28;20033;-85
2023/10/22 10:38:13;;;;;;;4.15;1.30;;;13.40;99.90;;;;;;5066467;28;20083;-87
2023/10/22 10:40:46;;;;;;;4.80;1.10;;;13.40;99.90;;;;;;5071231;28;20126;-89
2023/10/22 10:43:12;;;;;;;7.22;1.33;;;13.40;99.90;;;;;;5062492;28;20025;-87
2023/10/22 10:45:43;;;;;;;5.75;1.48;;;13.40;99.90;;;;;;5070145;28;20109;-85
2023/10/22 10:48:45;;;;;;;9.48;1.73;;;13.60;99.90;;;;;;5058985;28;20039;-87
2023/10/22 10:51:20;;;;;;;6.28;1.55;;;13.60;99.90;;;;;;5059347;28;20455;-86
2023/10/22 10:54:14;;;;;;;9.13;1.27;;;13.80;99.90;;;;;;5067935;28;20188;-89
2023/10/22 10:56:59;;;;;;;2.72;1.20;;;13.80;99.90;;;;;;5063467;28;20118;-87
2023/10/22 10:59:25;;;;;;;10.93;1.52;;;13.80;99.90;;;;;;5066685;28;20017;-83
2023/10/22 11:02:10;;;;;;;5.25;1.52;;;14.00;99.90;;;;;;5064088;28;20020;-83
2023/10/22 11:04:37;;;;;;;5.32;1.15;;;14.00;99.90;;;;;;5066855;28;20020;-86
2023/10/22 11:07:05;;;;;;;8.30;1.50;;;14.00;99.90;;;;;;5060756;28;20032;-83
2023/10/22 11:09:33;;;;;;;5.70;1.30;;;14.10;99.90;;;;;;5059482;28;20376;-90
2023/10/22 11:12:05;;;;;;;10.45;1.42;;;14.10;99.90;;;;;;5067427;28;20060;-86
2023/10/22 11:14:35;;;;;;;17.40;2.05;;;14.10;99.90;;;;;;5055681;28;20031;-90
2023/10/22 11:17:03;;;;;;;2.70;1.20;;;14.10;99.90;;;;;;5066619;28;20108;-89
2023/10/22 11:19:32;;;;;;;4.00;1.30;;;14.10;99.90;;;;;;5061387;28;20024;-86
2023/10/22 11:21:58;;;;;;;4.18;1.02;;;14.10;99.90;;;;;;5064090;28;20021;-86
2023/10/22 11:24:34;;;;;;;3.70;1.20;;;14.00;99.90;;;;;;5066863;28;20031;-86
2023/10/22 11:27:04;;;;;;;3.95;1.13;;;14.00;99.90;;;;;;5060163;28;20024;-86
2023/10/22 11:29:38;;;;;;;11.98;1.73;;;14.00;99.90;;;;;;5064096;28;20434;-84
2023/10/22 11:32:04;;;;;;;7.50;1.15;;;13.90;99.90;;;;;;5060068;28;20044;-87
2023/10/22 11:34:29;;;;;;;6.78;1.35;;;14.00;99.90;;;;;;5065359;28;20024;-85
2023/10/22 11:37:01;;;;;;;6.07;1.33;;;14.00;99.90;;;;;;5063716;28;20029;-87
2023/10/22 11:39:42;;;;;;;4.20;1.20;;;14.00;99.90;;;;;;5060607;28;20048;-86
2023/10/22 11:42:10;;;;;;;5.10;1.38;;;14.10;99.90;;;;;;5069793;28;20067;-86
2023/10/22 11:44:36;;;;;;;10.80;1.42;;;14.10;99.90;;;;;;5062856;28;20384;-84
2023/10/22 11:47:21;;;;;;;7.68;1.30;;;14.20;99.90;;;;;;5061854;28;20017;-86
2023/10/22 11:49:47;;;;;;;12.00;1.55;;;14.20;99.90;;;;;;5057249;28;20021;-84
2023/10/22 11:52:48;;;;;;;6.63;2.10;;;14.20;99.90;;;;;;5060678;28;20043;-84
2023/10/22 11:55:14;;;;;;;5.22;1.40;;;14.30;99.90;;;;;;5059511;28;20067;-84
2023/10/22 11:57:41;;;;;;;6.72;1.25;;;14.30;99.90;;;;;;5065371;28;20036;-85
2023/10/22 12:00:12;;;;;;;7.97;0.80;;;14.40;99.90;;;;;;5062098;28;20031;-85
2023/10/22 12:02:38;;;;;;;7.88;2.22;;;14.40;99.90;;;;;;5065979;28;20039;-85
2023/10/22 12:05:05;;;;;;;6.00;1.35;;;14.40;99.90;;;;;;5061792;28;20036;-86
2023/10/22 12:07:31;;;;;;;5.65;1.40;;;14.40;99.90;;;;;;5063826;28;20811;-84
2023/10/22 12:09:58;;;;;;;5.43;1.08;;;14.40;99.90;;;;;;5065534;28;20046;-85
2023/10/22 12:12:24;;;;;;;4.80;1.00;;;14.50;99.90;;;;;;5062989;28;20124;-83
2023/10/22 12:14:52;;;;;;;5.15;1.00;;;14.50;99.90;;;;;;5064367;28;20048;-86
2023/10/22 12:17:18;;;;;;;5.43;1.00;;;14.50;99.90;;;;;;5062770;28;20404;-85
2023/10/22 12:19:43;;;;;;;6.38;1.23;;;14.50;99.90;;;;;;5061598;28;20028;-87
2023/10/22 12:22:09;;;;;;;4.07;0.95;;;14.50;99.90;;;;;;5063788;28;20119;-87
2023/10/22 12:24:35;;;;;;;4.50;1.00;;;14.50;99.90;;;;;;5063518;28;20031;-85
2023/10/22 12:27:00;;;;;;;3.80;1.08;;;14.50;99.90;;;;;;5060607;28;20389;-86
2023/10/22 12:29:26;;;;;;;6.28;1.10;;;14.50;99.90;;;;;;5062800;28;20032;-87
2023/10/22 12:31:52;;;;;;;3.78;1.05;;;14.40;99.90;;;;;;5063482;28;20098;-86
2023/10/22 12:34:18;;;;;;;3.85;1.10;;;14.40;99.90;;;;;;5060323;28;20454;-86
2023/10/22 12:36:47;;;;;;;3.35;1.08;;;14.40;99.90;;;;;;5063648;28;20031;-86
2023/10/22 12:39:13;;;;;;;4.25;0.95;;;14.40;99.90;;;;;;5059046;28;20078;-85
2023/10/22 12:41:39;;;;;;;7.43;1.13;;;14.30;99.90;;;;;;5060308;28;20019;-85
2023/10/22 12:44:05;;;;;;;3.47;0.95;;;14.20;99.90;;;;;;5061998;28;20381;-84
2023/10/22 12:46:31;;;;;;;3.17;0.80;;;14.20;99.90;;;;;;5068039;28;20035;-84
2023/10/22 12:48:56;;;;;;;3.30;0.90;;;14.20;99.90;;;;;;5059668;28;20123;-85